Time;durP1;ratioP1;P1;durP2;ratioP2;P2;SDS_P1;SDS_P2;PMS_P1;PMS_P2;Temp;Humidity;BMP_temperature;BMP_pressure;BME280_temperature;BME280_humidity;BME280_pressure;Samples;Min_cycle;Max_cycle;Signal;HPM_P1;HPM_P2
2023/10/15 00:00:52;;;;;;;14.48;4.15;;;5.70;99.90;;;;;;5033579;28;20030;-65
2023/10/15 00:03:17;;;;;;;15.07;3.40;;;5.60;99.90;;;;;;5033588;28;20040;-65
2023/10/15 00:05:46;;;;;;;15.20;4.35;;;5.70;99.90;;;;;;5025054;28;20037;-65
2023/10/15 00:08:11;;;;;;;10.48;3.58;;;5.70;99.90;;;;;;5028723;28;20033;-65
2023/10/15 00:10:37;;;;;;;12.27;4.15;;;5.60;99.90;;;;;;5030824;28;20396;-66
2023/10/15 00:13:04;;;;;;;13.27;4.70;;;5.60;99.90;;;;;;5029575;28;20029;-65
2023/10/15 00:15:29;;;;;;;17.80;4.65;;;5.60;99.90;;;;;;5033269;28;20580;-65
2023/10/15 00:17:58;;;;;;;12.50;3.83;;;5.60;99.90;;;;;;5028808;28;20025;-65
2023/10/15 00:20:27;;;;;;;13.90;3.88;;;5.60;99.90;;;;;;5030426;28;20025;-65
2023/10/15 00:22:53;;;;;;;13.60;4.65;;;5.50;99.90;;;;;;5034688;28;20030;-65
2023/10/15 00:25:22;;;;;;;17.77;3.90;;;5.50;99.90;;;;;;5030230;28;20036;-65
2023/10/15 00:27:52;;;;;;;16.40;3.83;;;5.50;99.90;;;;;;5027185;28;20483;-64
2023/10/15 00:30:19;;;;;;;16.85;4.70;;;5.50;99.90;;;;;;5031567;28;20537;-65
2023/10/15 00:32:46;;;;;;;18.58;4.18;;;5.40;99.90;;;;;;5028701;28;20048;-65
2023/10/15 00:35:13;;;;;;;13.18;4.60;;;5.40;99.90;;;;;;5028897;28;20076;-65
2023/10/15 00:37:54;;;;;;;14.18;4.30;;;5.40;99.90;;;;;;5031186;28;20033;-63
2023/10/15 00:40:21;;;;;;;9.63;3.38;;;5.30;99.90;;;;;;5028997;28;20064;-65
2023/10/15 00:42:47;;;;;;;16.90;3.55;;;5.30;99.90;;;;;;5026150;28;20029;-65
2023/10/15 00:45:14;;;;;;;12.32;3.78;;;5.20;99.90;;;;;;5028101;28;20033;-65
2023/10/15 00:47:44;;;;;;;16.90;4.13;;;5.20;99.90;;;;;;5023222;28;20036;-63
2023/10/15 00:50:11;;;;;;;18.77;4.40;;;5.20;99.90;;;;;;5030757;28;20119;-65
2023/10/15 00:52:43;;;;;;;13.73;3.60;;;5.20;99.90;;;;;;5007645;28;20036;-65
2023/10/15 00:55:17;;;;;;;11.32;3.67;;;5.10;99.90;;;;;;5028392;28;20028;-64
2023/10/15 00:57:48;;;;;;;17.52;2.97;;;5.10;99.90;;;;;;5045602;28;20037;-65
2023/10/15 01:03:07;;;;;;;11.77;3.40;;;5.10;99.90;;;;;;5030836;28;20060;-65
2023/10/15 01:05:42;;;;;;;12.88;3.45;;;5.00;99.90;;;;;;5032515;28;20032;-65
2023/10/15 01:08:09;;;;;;;15.95;4.25;;;5.10;99.90;;;;;;5031115;28;20025;-65
2023/10/15 01:10:42;;;;;;;15.07;3.58;;;5.00;99.90;;;;;;5047592;28;20029;-65
2023/10/15 01:13:15;;;;;;;16.83;4.00;;;5.00;99.90;;;;;;5031148;28;20525;-65
2023/10/15 01:15:46;;;;;;;6.15;3.17;;;5.10;99.90;;;;;;5031354;28;20105;-65
2023/10/15 01:18:11;;;;;;;10.70;3.10;;;5.00;99.90;;;;;;5032178;28;20021;-65
2023/10/15 01:20:44;;;;;;;19.45;3.38;;;5.00;99.90;;;;;;5030057;28;20032;-65
2023/10/15 01:23:28;;;;;;;8.77;3.10;;;5.00;99.90;;;;;;5014574;28;20025;-65
2023/10/15 01:25:57;;;;;;;;;;;5.00;99.90;;;;;;5049851;28;20375;-65
2023/10/15 01:28:32;;;;;;;9.07;2.63;;;5.00;99.90;;;;;;5048346;28;19912;-65
2023/10/15 01:31:01;;;;;;;9.55;2.90;;;5.00;99.90;;;;;;5054789;28;20025;-65
2023/10/15 01:33:29;;;;;;;15.65;2.88;;;5.00;99.90;;;;;;5048091;28;20056;-65
2023/10/15 01:35:57;;;;;;;10.73;2.90;;;5.00;99.90;;;;;;5054215;28;20111;-65
2023/10/15 01:38:27;;;;;;;14.65;3.53;;;5.10;99.90;;;;;;5057707;28;20024;-64
2023/10/15 01:40:56;;;;;;;8.20;2.88;;;5.20;99.90;;;;;;5046088;28;20041;-64
2023/10/15 01:43:23;;;;;;;10.23;2.95;;;5.20;99.90;;;;;;5046805;28;20025;-65
2023/10/15 01:45:56;;;;;;;10.43;3.22;;;5.30;99.90;;;;;;5054575;28;20174;-64
2023/10/15 01:48:24;;;;;;;14.45;3.63;;;5.30;99.90;;;;;;5059004;28;20103;-64
2023/10/15 01:50:51;;;;;;;9.30;3.38;;;5.30;99.90;;;;;;5051196;28;20028;-63
2023/10/15 01:53:17;;;;;;;10.73;3.20;;;5.30;99.90;;;;;;5045789;28;20045;-65
2023/10/15 01:55:52;;;;;;;18.45;3.38;;;5.30;99.90;;;;;;5042888;28;20388;-64
2023/10/15 01:58:24;;;;;;;13.10;3.05;;;5.30;99.90;;;;;;5028448;28;20018;-64
2023/10/15 02:00:52;;;;;;;13.27;3.45;;;5.30;99.90;;;;;;5026451;28;20083;-65
2023/10/15 02:03:18;;;;;;;14.57;3.88;;;5.20;99.90;;;;;;5031227;28;20040;-65
2023/10/15 02:05:45;;;;;;;8.73;3.20;;;5.10;99.90;;;;;;5026957;28;20030;-64
2023/10/15 02:08:24;;;;;;;10.10;2.67;;;5.10;99.90;;;;;;5028203;28;20074;-64
2023/10/15 02:10:52;;;;;;;6.10;3.03;;;5.10;99.90;;;;;;5025976;28;20406;-66
2023/10/15 02:13:21;;;;;;;18.83;3.60;;;5.00;99.90;;;;;;5031849;28;20045;-65
2023/10/15 02:15:55;;;;;;;11.90;3.05;;;5.00;99.90;;;;;;5029241;28;20033;-64
2023/10/15 02:18:21;;;;;;;;;;;4.90;99.90;;;;;;5024398;28;20052;-64
2023/10/15 02:23:16;;;;;;;12.20;3.28;;;4.90;99.90;;;;;;5006065;28;20033;-64
2023/10/15 02:25:56;;;;;;;10.23;3.70;;;4.80;99.90;;;;;;5027718;28;20033;-65
2023/10/15 02:28:25;;;;;;;19.33;3.13;;;4.80;99.90;;;;;;5025160;28;20014;-64
2023/10/15 02:31:21;;;;;;;16.88;3.17;;;4.80;99.90;;;;;;5029122;28;20021;-65
2023/10/15 02:33:42;;;;;;;25.25;3.20;;;4.80;99.90;;;;;;5030024;28;20052;-64
2023/10/15 02:36:09;;;;;;;13.98;3.97;;;4.80;99.90;;;;;;5030091;28;20029;-64
2023/10/15 02:38:48;;;;;;;10.25;3.17;;;4.80;99.90;;;;;;5031806;28;20035;-65
2023/10/15 02:41:17;;;;;;;10.55;3.35;;;4.80;99.90;;;;;;5027500;28;20029;-65
2023/10/15 02:43:48;;;;;;;9.90;4.50;;;4.80;99.90;;;;;;5033706;28;20018;-64
2023/10/15 02:46:23;;;;;;;5.72;2.28;;;4.80;99.90;;;;;;5029703;28;20013;-65
2023/10/15 02:48:54;;;;;;;5.72;2.75;;;4.80;99.90;;;;;;5024937;28;20029;-65
2023/10/15 02:51:23;;;;;;;17.13;3.60;;;4.70;99.90;;;;;;5031512;28;20475;-64
2023/10/15 02:53:55;;;;;;;10.43;2.35;;;4.80;99.90;;;;;;5028193;28;20022;-65
2023/10/15 02:56:22;;;;;;;12.95;2.58;;;4.70;99.90;;;;;;5029605;28;20084;-64
2023/10/15 02:58:48;;;;;;;16.98;3.58;;;4.70;99.90;;;;;;5032042;28;20053;-65
2023/10/15 03:01:20;;;;;;;9.50;2.58;;;4.70;99.90;;;;;;5029237;28;20545;-64
2023/10/15 03:03:49;;;;;;;17.38;3.45;;;4.70;99.90;;;;;;5024234;28;20434;-64
2023/10/15 03:06:18;;;;;;;19.67;4.38;;;4.70;99.90;;;;;;5034158;28;20375;-65
2023/10/15 03:08:47;;;;;;;8.02;2.72;;;4.70;99.90;;;;;;5029598;28;20113;-65
2023/10/15 03:11:14;;;;;;;21.30;3.05;;;4.70;99.90;;;;;;5032605;28;20116;-64
2023/10/15 03:13:53;;;;;;;14.10;2.80;;;4.60;99.90;;;;;;5038132;28;20031;-65
2023/10/15 03:16:24;;;;;;;6.25;2.47;;;4.60;99.90;;;;;;5032098;28;20394;-64
2023/10/15 03:18:51;;;;;;;10.63;2.65;;;4.60;99.90;;;;;;5031166;28;20034;-64
2023/10/15 03:21:27;;;;;;;10.20;3.03;;;4.70;99.90;;;;;;5033083;28;20026;-65
2023/10/15 03:23:57;;;;;;;11.15;3.17;;;4.70;99.90;;;;;;5030873;28;20029;-69
2023/10/15 03:26:24;;;;;;;12.35;3.13;;;4.80;99.90;;;;;;5032354;28;20083;-65
2023/10/15 03:28:58;;;;;;;11.82;4.00;;;4.80;99.90;;;;;;5032510;28;20083;-64
2023/10/15 03:31:25;;;;;;;13.13;3.13;;;4.70;99.90;;;;;;5032111;28;20368;-64
2023/10/15 03:34:12;;;;;;;10.85;5.15;;;4.70;99.90;;;;;;5034095;28;20032;-64
2023/10/15 03:36:47;;;;;;;12.02;3.17;;;4.80;99.90;;;;;;5030051;28;20025;-65
2023/10/15 03:39:16;;;;;;;10.93;3.00;;;4.80;99.90;;;;;;5030780;28;20036;-65
2023/10/15 03:41:52;;;;;;;17.40;2.83;;;4.90;99.90;;;;;;5032430;28;20034;-66
2023/10/15 03:44:27;;;;;;;22.38;3.70;;;5.00;99.90;;;;;;5031382;28;20499;-65
2023/10/15 03:46:54;;;;;;;10.95;3.55;;;5.10;99.90;;;;;;5030375;28;20021;-65
2023/10/15 03:49:27;;;;;;;12.52;3.38;;;5.20;99.90;;;;;;5033303;28;20030;-64
2023/10/15 03:51:53;;;;;;;7.35;3.20;;;5.30;99.90;;;;;;5034311;28;20074;-65
2023/10/15 03:54:22;;;;;;;10.73;2.90;;;5.40;99.90;;;;;;5028689;28;20033;-65
2023/10/15 03:56:52;;;;;;;6.90;2.60;;;5.50;99.90;;;;;;5033709;28;20018;-65
2023/10/15 03:59:19;;;;;;;9.52;2.20;;;5.60;99.90;;;;;;5034340;28;20029;-65
2023/10/15 04:01:48;;;;;;;12.40;2.90;;;5.70;99.90;;;;;;5032524;28;20499;-65
2023/10/15 04:04:16;;;;;;;9.15;2.83;;;5.70;99.90;;;;;;5036971;28;20024;-65
2023/10/15 04:06:42;;;;;;;13.13;2.28;;;5.80;99.90;;;;;;5027770;28;20029;-65
2023/10/15 04:11:43;;;;;;;9.45;2.47;;;5.90;99.90;;;;;;5028457;28;20025;-64
2023/10/15 04:14:22;;;;;;;8.90;2.15;;;6.00;99.90;;;;;;5033353;28;20056;-63
2023/10/15 04:16:50;;;;;;;7.20;2.35;;;6.00;99.90;;;;;;5030591;28;20112;-64
2023/10/15 04:19:18;;;;;;;17.70;2.50;;;6.00;99.90;;;;;;5029648;28;20026;-65
2023/10/15 04:21:45;;;;;;;10.85;2.95;;;6.10;99.90;;;;;;5032739;28;20033;-64
2023/10/15 04:24:18;;;;;;;7.72;2.60;;;6.10;99.90;;;;;;5028854;28;20041;-64
2023/10/15 04:26:48;;;;;;;13.80;2.47;;;6.10;99.90;;;;;;5031973;28;20039;-64
2023/10/15 04:29:17;;;;;;;13.70;2.47;;;6.10;99.90;;;;;;5032130;28;20037;-64
2023/10/15 04:31:51;;;;;;;17.58;2.92;;;6.10;99.90;;;;;;5030457;28;20035;-64
2023/10/15 04:34:18;;;;;;;10.77;2.65;;;6.10;99.90;;;;;;5031988;28;20030;-64
2023/10/15 04:36:47;;;;;;;11.10;2.40;;;6.20;99.90;;;;;;5030414;28;20026;-64
2023/10/15 04:39:16;;;;;;;13.13;2.65;;;6.20;99.90;;;;;;5028377;28;20038;-64
2023/10/15 04:41:41;;;;;;;15.95;2.72;;;6.30;99.90;;;;;;5030798;28;20035;-64
2023/10/15 04:44:12;;;;;;;12.25;2.92;;;6.30;99.90;;;;;;5031158;28;20117;-65
2023/10/15 04:46:41;;;;;;;11.40;2.83;;;6.30;99.90;;;;;;5032764;28;20047;-64
2023/10/15 04:49:09;;;;;;;8.80;2.33;;;6.30;99.90;;;;;;5030741;28;20486;-69
2023/10/15 04:51:43;;;;;;;13.75;2.53;;;6.20;99.90;;;;;;5036016;28;20083;-64
2023/10/15 04:54:15;;;;;;;4.78;2.00;;;6.10;99.90;;;;;;5005428;28;20029;-63
2023/10/15 04:56:42;;;;;;;7.57;2.00;;;6.10;99.90;;;;;;5029458;28;20037;-64
2023/10/15 04:59:08;;;;;;;10.10;2.67;;;6.20;99.90;;;;;;5029396;28;20052;-64
2023/10/15 05:01:33;;;;;;;11.52;2.50;;;6.20;99.90;;;;;;5029079;28;20089;-64
2023/10/15 05:04:01;;;;;;;12.63;2.85;;;6.20;99.90;;;;;;5031560;28;20030;-65
2023/10/15 05:06:27;;;;;;;6.43;2.95;;;6.20;99.90;;;;;;5029824;28;20086;-64
2023/10/15 05:08:53;;;;;;;13.15;2.80;;;6.20;99.90;;;;;;5030743;28;20033;-64
2023/10/15 05:11:21;;;;;;;9.40;2.25;;;6.20;99.90;;;;;;5030166;28;20079;-64
2023/10/15 05:13:48;;;;;;;7.38;2.20;;;6.20;99.90;;;;;;5029497;28;20525;-64
2023/10/15 05:16:14;;;;;;;4.75;2.30;;;6.20;99.90;;;;;;5024816;28;20156;-64
2023/10/15 05:18:40;;;;;;;7.13;2.33;;;6.20;99.90;;;;;;5030475;28;20032;-64
2023/10/15 05:21:06;;;;;;;3.58;2.15;;;6.20;99.90;;;;;;5029147;28;20033;-69
2023/10/15 05:23:33;;;;;;;10.23;2.78;;;6.20;99.90;;;;;;5030086;28;20025;-64
2023/10/15 05:25:59;;;;;;;8.38;2.83;;;6.20;99.90;;;;;;5047025;28;20394;-64
2023/10/15 05:28:26;;;;;;;7.78;3.03;;;6.20;99.90;;;;;;5031107;28;20024;-64
2023/10/15 05:30:52;;;;;;;8.20;3.58;;;6.20;99.90;;;;;;5032275;28;20017;-64
2023/10/15 05:33:18;;;;;;;17.33;4.25;;;6.20;99.90;;;;;;5029416;28;20068;-65
2023/10/15 05:35:47;;;;;;;10.13;3.85;;;6.20;99.90;;;;;;5030007;28;20481;-65
2023/10/15 05:38:12;;;;;;;12.13;3.25;;;6.20;99.90;;;;;;5030462;28;20037;-65
2023/10/15 05:40:38;;;;;;;9.48;3.20;;;6.20;99.90;;;;;;5025061;28;20021;-65
2023/10/15 05:43:07;;;;;;;9.60;2.58;;;6.20;99.90;;;;;;5031597;28;20033;-66
2023/10/15 05:45:33;;;;;;;10.45;2.60;;;6.20;99.90;;;;;;5029605;28;20030;-65
2023/10/15 05:47:58;;;;;;;9.73;2.47;;;6.20;99.90;;;;;;5031549;28;20108;-65
2023/10/15 05:50:24;;;;;;;6.43;2.58;;;6.30;99.90;;;;;;5030916;28;20034;-65
2023/10/15 05:52:50;;;;;;;7.78;2.35;;;6.30;99.90;;;;;;5033038;28;21829;-65
2023/10/15 05:55:17;;;;;;;11.00;4.18;;;6.30;99.90;;;;;;5032714;28;20028;-65
2023/10/15 05:57:43;;;;;;;5.43;2.35;;;6.40;99.90;;;;;;5031137;28;20094;-64
2023/10/15 06:00:18;;;;;;;11.82;3.25;;;6.40;99.90;;;;;;5028109;28;20437;-65
2023/10/15 06:02:48;;;;;;;11.27;2.92;;;6.40;99.90;;;;;;5029676;28;20120;-64
2023/10/15 06:05:14;;;;;;;4.78;2.40;;;6.50;99.90;;;;;;5029442;28;20105;-65
2023/10/15 06:07:44;;;;;;;6.45;2.63;;;6.50;99.90;;;;;;5035115;28;20056;-65
2023/10/15 06:10:11;;;;;;;10.48;2.78;;;6.50;99.90;;;;;;5037325;28;20108;-65
2023/10/15 06:12:40;;;;;;;9.90;2.83;;;6.50;99.90;;;;;;5029079;28;20118;-65
2023/10/15 06:15:07;;;;;;;5.45;2.60;;;6.60;99.90;;;;;;5027904;28;20463;-65
2023/10/15 06:17:33;;;;;;;12.80;3.10;;;6.60;99.90;;;;;;5031553;28;20037;-65
2023/10/15 06:20:12;;;;;;;9.02;2.90;;;6.70;99.90;;;;;;5030649;28;20029;-65
2023/10/15 06:22:41;;;;;;;7.60;3.42;;;6.70;99.90;;;;;;5029556;28;20025;-65
2023/10/15 06:25:08;;;;;;;14.02;3.60;;;6.70;99.90;;;;;;5027679;28;20437;-66
2023/10/15 06:27:35;;;;;;;8.80;2.67;;;6.80;99.90;;;;;;5028604;28;20049;-65
2023/10/15 06:30:16;;;;;;;8.52;2.97;;;6.80;99.90;;;;;;5028426;28;20022;-65
2023/10/15 06:32:43;;;;;;;12.80;2.90;;;6.80;99.90;;;;;;5029041;28;20032;-65
2023/10/15 06:35:10;;;;;;;9.68;2.75;;;6.80;99.90;;;;;;5033188;28;20018;-65
2023/10/15 06:37:38;;;;;;;9.55;2.80;;;6.90;99.90;;;;;;5034588;28;20025;-64
2023/10/15 06:40:08;;;;;;;6.78;2.92;;;6.90;99.90;;;;;;5037180;28;20103;-65
2023/10/15 06:42:34;;;;;;;12.07;2.42;;;7.00;99.90;;;;;;5036304;28;20368;-65
2023/10/15 06:44:59;;;;;;;9.10;2.63;;;7.00;99.90;;;;;;5036614;28;20026;-65
2023/10/15 06:47:27;;;;;;;5.80;2.15;;;7.00;99.90;;;;;;5029754;28;20025;-63
2023/10/15 06:49:53;;;;;;;10.60;2.35;;;7.00;99.90;;;;;;5036147;28;20129;-64
2023/10/15 06:52:19;;;;;;;10.00;2.90;;;7.10;99.90;;;;;;5035583;28;20055;-64
2023/10/15 06:54:44;;;;;;;15.23;4.03;;;7.20;99.90;;;;;;5031939;28;20072;-64
2023/10/15 06:57:10;;;;;;;9.63;2.22;;;7.20;99.90;;;;;;5031534;28;20601;-64
2023/10/15 06:59:37;;;;;;;8.90;2.60;;;7.30;99.90;;;;;;5033208;28;20022;-65
2023/10/15 07:02:03;;;;;;;11.00;3.35;;;7.40;99.90;;;;;;5033044;28;20031;-65
2023/10/15 07:04:29;;;;;;;6.60;2.75;;;7.40;99.90;;;;;;5039731;28;20029;-65
2023/10/15 07:06:55;;;;;;;12.88;2.72;;;7.50;99.90;;;;;;5028685;28;20394;-65
2023/10/15 07:09:21;;;;;;;13.52;5.50;;;7.50;99.90;;;;;;5031472;28;20151;-64
2023/10/15 07:11:46;;;;;;;12.18;5.57;;;7.60;99.90;;;;;;5031432;28;20506;-65
2023/10/15 07:14:12;;;;;;;9.77;4.28;;;7.60;99.90;;;;;;5035364;28;20033;-63
2023/10/15 07:16:40;;;;;;;11.98;4.45;;;7.60;99.90;;;;;;5035811;28;20057;-65
2023/10/15 07:19:06;;;;;;;12.60;3.75;;;7.50;99.90;;;;;;5034738;28;20084;-65
2023/10/15 07:21:32;;;;;;;13.48;4.47;;;7.50;99.90;;;;;;5031914;28;20089;-64
2023/10/15 07:23:58;;;;;;;6.15;2.55;;;7.50;99.90;;;;;;5031215;28;20045;-65
2023/10/15 07:26:24;;;;;;;5.60;2.75;;;7.50;99.90;;;;;;5029292;28;20021;-65
2023/10/15 07:28:50;;;;;;;7.72;2.65;;;7.50;99.90;;;;;;5031408;28;20048;-64
2023/10/15 07:31:15;;;;;;;27.10;10.70;;;7.50;99.90;;;;;;5031489;28;20029;-65
2023/10/15 07:33:41;;;;;;;78.68;40.00;;;7.60;99.90;;;;;;5032469;28;20112;-65
2023/10/15 07:36:07;;;;;;;38.15;15.93;;;7.60;99.90;;;;;;5033145;28;20037;-65
2023/10/15 07:38:33;;;;;;;20.45;11.38;;;7.60;99.90;;;;;;5033707;28;20049;-65
2023/10/15 07:41:00;;;;;;;30.77;15.48;;;7.80;99.90;;;;;;5033588;28;20053;-65
2023/10/15 07:43:25;;;;;;;31.00;14.82;;;8.00;99.90;;;;;;5034333;28;20048;-65
2023/10/15 07:45:51;;;;;;;33.70;16.92;;;8.20;99.90;;;;;;5035803;28;20095;-65
2023/10/15 07:48:16;;;;;;;12.93;4.28;;;8.30;99.90;;;;;;5033711;28;20029;-64
2023/10/15 07:50:45;;;;;;;8.88;5.07;;;8.40;99.90;;;;;;5032906;28;20479;-65
2023/10/15 07:53:11;;;;;;;19.63;4.93;;;8.50;99.90;;;;;;5034332;28;20037;-65
2023/10/15 07:55:37;;;;;;;5.45;3.15;;;8.60;99.90;;;;;;5033309;28;20568;-65
2023/10/15 07:58:03;;;;;;;8.65;4.30;;;8.70;99.90;;;;;;5029781;28;20030;-64
2023/10/15 08:00:33;;;;;;;14.23;5.45;;;8.60;99.90;;;;;;5033462;28;20517;-64
2023/10/15 08:03:00;;;;;;;6.50;2.35;;;8.50;99.90;;;;;;5032819;28;20017;-64
2023/10/15 08:05:26;;;;;;;4.55;2.25;;;8.40;99.90;;;;;;5033353;28;20080;-65
2023/10/15 08:07:53;;;;;;;2.53;1.75;;;8.40;99.90;;;;;;5032398;28;20040;-65
2023/10/15 08:10:23;;;;;;;6.20;2.05;;;8.40;99.90;;;;;;5028469;28;20064;-65
2023/10/15 08:12:49;;;;;;;5.13;1.85;;;8.50;99.90;;;;;;5032665;28;20026;-65
2023/10/15 08:15:16;;;;;;;5.72;2.20;;;8.60;99.90;;;;;;5031849;28;20549;-65
2023/10/15 08:17:42;;;;;;;5.45;1.80;;;8.80;99.90;;;;;;5032815;28;20407;-65
2023/10/15 08:20:09;;;;;;;3.17;1.50;;;8.90;99.90;;;;;;5030142;28;20025;-65
2023/10/15 08:22:35;;;;;;;8.27;1.80;;;9.00;99.90;;;;;;5032288;28;20022;-65
2023/10/15 08:25:01;;;;;;;6.47;1.83;;;9.10;99.90;;;;;;5029173;28;20075;-65
2023/10/15 08:27:26;;;;;;;8.95;2.47;;;9.30;99.90;;;;;;5027600;28;20204;-65
2023/10/15 08:29:52;;;;;;;5.35;1.98;;;9.40;99.90;;;;;;5025798;28;20037;-65
2023/10/15 08:32:17;;;;;;;4.90;1.83;;;9.40;99.90;;;;;;5026122;28;20029;-65
2023/10/15 08:34:44;;;;;;;5.43;2.28;;;9.40;99.90;;;;;;5031142;28;20025;-65
2023/10/15 08:37:10;;;;;;;3.05;1.63;;;9.30;99.90;;;;;;5032050;28;20052;-64
2023/10/15 08:39:38;;;;;;;3.17;2.08;;;9.30;99.90;;;;;;5032687;28;20025;-65
2023/10/15 08:42:06;;;;;;;6.15;1.95;;;9.10;99.90;;;;;;5033017;28;20025;-65
2023/10/15 08:44:34;;;;;;;4.82;2.25;;;9.10;99.90;;;;;;5029638;28;20025;-65
2023/10/15 08:47:01;;;;;;;2.85;1.90;;;9.10;99.90;;;;;;5043927;28;20111;-65
2023/10/15 08:49:34;;;;;;;5.32;1.80;;;9.10;99.90;;;;;;5030220;28;20033;-64
2023/10/15 08:52:00;;;;;;;3.10;1.85;;;9.10;99.90;;;;;;5032705;28;20021;-64
2023/10/15 08:54:28;;;;;;;5.05;2.42;;;9.10;99.90;;;;;;5030463;28;20048;-64
2023/10/15 08:56:57;;;;;;;8.85;2.13;;;9.00;99.90;;;;;;5029718;28;20025;-65
2023/10/15 08:59:22;;;;;;;4.25;2.25;;;9.30;99.90;;;;;;5032424;28;20053;-67
2023/10/15 09:01:51;;;;;;;3.15;2.05;;;9.20;99.90;;;;;;5023052;28;20049;-63
2023/10/15 09:04:16;;;;;;;4.20;2.10;;;9.40;99.90;;;;;;5026961;28;20418;-63
2023/10/15 09:06:43;;;;;;;2.60;1.98;;;9.40;99.90;;;;;;5031014;28;20017;-63
2023/10/15 09:09:08;;;;;;;7.82;2.38;;;9.40;99.90;;;;;;5028720;28;20026;-65
2023/10/15 09:11:35;;;;;;;7.03;1.98;;;9.30;99.90;;;;;;5029691;28;20026;-64
2023/10/15 09:14:02;;;;;;;3.10;1.80;;;9.20;99.90;;;;;;5030068;28;20048;-64
2023/10/15 09:16:29;;;;;;;5.78;2.28;;;9.20;99.90;;;;;;5027175;28;20018;-64
2023/10/15 09:18:55;;;;;;;4.32;2.50;;;9.20;99.90;;;;;;5026943;28;20026;-63
2023/10/15 09:21:24;;;;;;;4.32;2.63;;;9.20;99.90;;;;;;5029974;28;20014;-63
2023/10/15 09:23:50;;;;;;;4.80;3.60;;;9.30;99.90;;;;;;5030878;28;20120;-64
2023/10/15 09:26:17;;;;;;;4.10;2.50;;;9.40;99.90;;;;;;5021319;28;20093;-64
2023/10/15 09:28:43;;;;;;;7.80;2.83;;;9.60;99.90;;;;;;5024246;28;20497;-64
2023/10/15 09:31:10;;;;;;;6.68;2.45;;;9.80;99.90;;;;;;5029064;28;20068;-64
2023/10/15 09:33:37;;;;;;;5.20;2.53;;;9.90;99.90;;;;;;5025528;28;20021;-64
2023/10/15 09:36:05;;;;;;;3.42;2.40;;;9.90;99.90;;;;;;5023128;28;20018;-64
2023/10/15 09:38:34;;;;;;;4.93;1.67;;;9.80;99.90;;;;;;5022690;28;20028;-64
2023/10/15 09:41:05;;;;;;;6.57;2.47;;;9.80;99.90;;;;;;5028773;28;20107;-64
2023/10/15 09:43:31;;;;;;;4.40;2.17;;;10.30;99.90;;;;;;5026876;28;20167;-63
2023/10/15 09:45:58;;;;;;;8.63;2.53;;;10.90;99.90;;;;;;5023996;28;20386;-64
2023/10/15 09:48:25;;;;;;;4.28;1.92;;;11.30;99.90;;;;;;5023732;28;20064;-64
2023/10/15 09:50:53;;;;;;;5.65;2.10;;;11.60;99.90;;;;;;5024512;28;20037;-65
2023/10/15 09:53:21;;;;;;;4.22;1.85;;;11.90;99.90;;;;;;5024819;28;20021;-64
2023/10/15 09:55:48;;;;;;;3.13;1.60;;;11.90;99.90;;;;;;5027333;28;20124;-64
2023/10/15 09:58:15;;;;;;;7.05;2.10;;;11.70;99.90;;;;;;5026842;28;20066;-64
2023/10/15 10:01:49;;;;;;;7.50;2.80;;;11.40;99.90;;;;;;5031328;28;20437;-64
2023/10/15 10:03:59;;;;;;;3.65;2.20;;;11.20;99.90;;;;;;5020993;28;20491;-64
2023/10/15 10:06:56;;;;;;;4.63;1.83;;;11.20;99.90;;;;;;5030614;28;20020;-63
2023/10/15 10:09:58;;;;;;;7.68;2.03;;;11.40;99.90;;;;;;5025640;28;20045;-64
2023/10/15 10:12:54;;;;;;;5.47;2.25;;;11.40;99.90;;;;;;5024686;28;20124;-64
2023/10/15 10:15:29;;;;;;;4.20;2.47;;;11.50;99.90;;;;;;5021933;28;20030;-64
2023/10/15 10:17:55;;;;;;;5.43;1.75;;;11.40;99.90;;;;;;4994412;28;20063;-63
2023/10/15 10:20:32;;;;;;;5.32;1.73;;;11.40;99.90;;;;;;5026229;28;20025;-64
2023/10/15 10:23:00;;;;;;;1.95;1.35;;;11.10;99.90;;;;;;5038105;28;20021;-64
2023/10/15 10:25:31;;;;;;;3.50;1.90;;;11.20;99.90;;;;;;5017792;28;20026;-64
2023/10/15 10:28:09;;;;;;;2.28;1.25;;;11.10;99.90;;;;;;5036990;28;20033;-63
2023/10/15 10:30:37;;;;;;;3.28;1.50;;;11.40;99.90;;;;;;5026700;28;20087;-64
2023/10/15 10:33:03;;;;;;;3.35;1.55;;;11.10;99.90;;;;;;5031573;28;20021;-64
2023/10/15 10:35:43;;;;;;;2.83;1.33;;;11.00;99.90;;;;;;5028364;28;20461;-64
2023/10/15 10:38:18;;;;;;;2.58;1.02;;;10.90;99.90;;;;;;5027849;28;20097;-64
2023/10/15 10:41:04;;;;;;;4.07;1.50;;;10.90;99.90;;;;;;5027849;28;20025;-63
2023/10/15 10:43:30;;;;;;;5.40;1.70;;;11.00;99.90;;;;;;5022495;28;20040;-64
2023/10/15 10:45:57;;;;;;;2.42;1.50;;;11.40;99.90;;;;;;5028977;28;20439;-64
2023/10/15 10:48:25;;;;;;;2.92;1.50;;;11.40;99.90;;;;;;5027480;28;20091;-64
2023/10/15 10:51:25;;;;;;;4.35;1.60;;;11.20;99.90;;;;;;5028736;28;20028;-63
2023/10/15 10:54:15;;;;;;;6.05;1.50;;;10.80;99.90;;;;;;5024409;28;20033;-63
2023/10/15 10:56:40;;;;;;;4.78;1.48;;;10.70;99.90;;;;;;5022944;28;20042;-66
2023/10/15 10:59:10;;;;;;;3.85;1.60;;;10.50;99.90;;;;;;5022909;28;20036;-66
2023/10/15 11:01:38;;;;;;;3.92;1.50;;;10.60;99.90;;;;;;5027119;28;20021;-64
2023/10/15 11:04:04;;;;;;;5.88;1.65;;;10.70;99.90;;;;;;5030718;28;20043;-63
2023/10/15 11:06:32;;;;;;;3.20;1.38;;;11.10;99.90;;;;;;5029276;28;20080;-63
2023/10/15 11:08:58;;;;;;;6.63;1.40;;;11.70;99.90;;;;;;5025795;28;20026;-64
2023/10/15 11:11:24;;;;;;;5.00;1.55;;;12.10;99.90;;;;;;5023176;28;20037;-63
2023/10/15 11:13:50;;;;;;;5.65;1.50;;;12.40;99.90;;;;;;5028808;28;20034;-63
2023/10/15 11:16:16;;;;;;;7.68;1.50;;;12.40;99.90;;;;;;5021759;28;20109;-64
2023/10/15 11:18:45;;;;;;;2.50;1.48;;;12.10;99.90;;;;;;5028839;28;20053;-64
2023/10/15 11:21:10;;;;;;;4.15;1.15;;;11.80;99.90;;;;;;5033217;28;20095;-64
2023/10/15 11:23:38;;;;;;;3.97;1.15;;;11.70;99.90;;;;;;5027382;28;20061;-64
2023/10/15 11:26:04;;;;;;;2.22;1.25;;;11.60;99.90;;;;;;5021594;28;20026;-64
2023/10/15 11:28:30;;;;;;;3.50;1.15;;;11.70;99.90;;;;;;5031003;28;20380;-63
2023/10/15 11:30:56;;;;;;;4.28;1.20;;;11.50;99.90;;;;;;5033122;28;20030;-63
2023/10/15 11:33:23;;;;;;;4.78;1.27;;;11.10;99.90;;;;;;5027425;28;20021;-63
2023/10/15 11:35:48;;;;;;;2.75;0.93;;;10.80;99.90;;;;;;5035996;28;20056;-63
2023/10/15 11:38:14;;;;;;;5.60;1.80;;;10.30;99.90;;;;;;5032319;28;20063;-68
2023/10/15 11:40:41;;;;;;;4.40;1.27;;;9.90;99.90;;;;;;5052855;28;20021;-64
2023/10/15 11:43:18;;;;;;;2.92;1.13;;;9.60;99.90;;;;;;5032006;28;20133;-64
2023/10/15 11:45:47;;;;;;;3.75;1.15;;;9.50;99.90;;;;;;5029369;28;20503;-64
2023/10/15 11:48:21;;;;;;;3.58;1.13;;;9.40;99.90;;;;;;5033563;28;20087;-63
2023/10/15 11:50:48;;;;;;;3.45;1.10;;;9.40;99.90;;;;;;5027523;28;20056;-63
2023/10/15 11:53:16;;;;;;;7.53;2.05;;;9.30;99.90;;;;;;5036861;28;20026;-63
2023/10/15 11:55:48;;;;;;;6.03;1.20;;;9.10;99.90;;;;;;5030700;28;20398;-63
2023/10/15 11:58:16;;;;;;;5.88;1.52;;;9.20;99.90;;;;;;5030232;28;20026;-64
2023/10/15 12:00:42;;;;;;;3.13;0.98;;;9.20;99.90;;;;;;5032878;28;20113;-64
2023/10/15 12:03:09;;;;;;;3.03;1.17;;;9.30;99.90;;;;;;5031047;28;20029;-63
2023/10/15 12:05:35;;;;;;;2.50;0.90;;;9.30;99.90;;;;;;5024162;28;20026;-63
2023/10/15 12:08:03;;;;;;;2.70;1.15;;;9.30;99.90;;;;;;5026077;28;20492;-63
2023/10/15 12:10:29;;;;;;;4.07;0.73;;;9.30;99.90;;;;;;5028807;28;20498;-64
2023/10/15 12:12:56;;;;;;;2.33;1.17;;;9.20;99.90;;;;;;5030936;28;20033;-64
2023/10/15 12:15:21;;;;;;;3.88;1.20;;;9.30;99.90;;;;;;5028586;28;20104;-64
2023/10/15 12:17:47;;;;;;;5.97;1.30;;;9.30;99.90;;;;;;5030087;28;20132;-66
2023/10/15 12:20:13;;;;;;;4.70;1.00;;;9.40;99.90;;;;;;5026385;28;20041;-64
2023/10/15 12:22:41;;;;;;;7.57;1.10;;;9.50;99.90;;;;;;5045613;28;20513;-64
2023/10/15 12:25:07;;;;;;;5.00;0.98;;;9.70;99.90;;;;;;5026738;28;20037;-63
2023/10/15 12:27:33;;;;;;;2.80;0.68;;;9.80;99.90;;;;;;5021573;28;20622;-64
2023/10/15 12:30:03;;;;;;;2.33;1.30;;;10.00;99.90;;;;;;5025928;28;20033;-64
2023/10/15 12:32:29;;;;;;;2.35;1.10;;;10.10;99.90;;;;;;5030466;28;20029;-64
2023/10/15 12:34:54;;;;;;;3.08;0.80;;;10.20;99.90;;;;;;5021034;28;20029;-63
2023/10/15 12:37:23;;;;;;;1.35;0.80;;;10.20;99.90;;;;;;5028136;28;20108;-64
2023/10/15 12:39:52;;;;;;;1.58;0.95;;;10.20;99.90;;;;;;5029058;28;20398;-64
2023/10/15 12:42:21;;;;;;;5.35;2.17;;;10.20;99.90;;;;;;5028111;28;20450;-63
2023/10/15 12:44:47;;;;;;;4.18;0.90;;;10.20;99.90;;;;;;5026160;28;20029;-64
2023/10/15 12:47:13;;;;;;;3.38;0.98;;;10.20;99.90;;;;;;5026993;28;20034;-64
2023/10/15 12:49:39;;;;;;;2.38;1.33;;;10.30;99.90;;;;;;5031495;28;20056;-63
2023/10/15 12:52:08;;;;;;;2.55;0.90;;;10.30;99.90;;;;;;5027849;28;20499;-63
2023/10/15 12:54:34;;;;;;;5.78;1.05;;;10.40;99.90;;;;;;5031205;28;20050;-63
2023/10/15 12:56:59;;;;;;;4.30;1.30;;;10.30;99.90;;;;;;5029096;28;20028;-65
2023/10/15 12:59:25;;;;;;;4.38;1.20;;;10.20;99.90;;;;;;5023007;28;20025;-65
2023/10/15 13:01:50;;;;;;;2.63;0.80;;;10.10;99.90;;;;;;5027865;28;20033;-65
2023/10/15 13:04:17;;;;;;;4.53;1.08;;;9.90;99.90;;;;;;5029422;28;20356;-65
2023/10/15 13:06:43;;;;;;;3.63;1.30;;;9.80;99.90;;;;;;5027756;28;20514;-65